Time;durP1;ratioP1;P1;durP2;ratioP2;P2;SDS_P1;SDS_P2;PMS_P1;PMS_P2;Temp;Humidity;BMP_temperature;BMP_pressure;BME280_temperature;BME280_humidity;BME280_pressure;Samples;Min_cycle;Max_cycle;Signal;HPM_P1;HPM_P2
2022/11/28 00:01:40;;;;;;;22.93;20.73;;;4.50;99.90;;;;;;4999867;28;20699;-49
2022/11/28 00:04:06;;;;;;;24.30;21.20;;;4.50;99.90;;;;;;5001265;28;20445;-49
2022/11/28 00:06:38;;;;;;;25.77;22.60;;;4.60;99.90;;;;;;4998688;28;20222;-56
2022/11/28 00:09:05;;;;;;;23.60;21.15;;;4.60;99.90;;;;;;5001043;28;20179;-52
2022/11/28 00:11:30;;;;;;;23.27;20.80;;;4.60;99.90;;;;;;4999154;28;20187;-49
2022/11/28 00:13:56;;;;;;;24.27;21.77;;;4.60;99.90;;;;;;4999257;28;20187;-49
2022/11/28 00:16:22;;;;;;;21.77;19.67;;;4.60;99.90;;;;;;5001004;28;20545;-51
2022/11/28 00:18:48;;;;;;;23.48;20.73;;;4.60;99.90;;;;;;5000958;28;20533;-51
2022/11/28 00:21:14;;;;;;;23.73;20.90;;;4.60;99.90;;;;;;5001020;28;20299;-56
2022/11/28 00:23:42;;;;;;;21.73;19.48;;;4.60;99.90;;;;;;5001128;28;20791;-55
2022/11/28 00:26:14;;;;;;;23.02;20.60;;;4.70;99.90;;;;;;5000822;28;20186;-59
2022/11/28 00:28:40;;;;;;;23.95;21.58;;;4.60;99.90;;;;;;5000936;28;20190;-51
2022/11/28 00:31:10;;;;;;;23.07;20.63;;;4.70;99.90;;;;;;4999644;28;20576;-56
2022/11/28 00:33:35;;;;;;;25.70;23.15;;;4.60;99.90;;;;;;4999652;28;20262;-56
2022/11/28 00:36:03;;;;;;;21.80;19.60;;;4.60;99.90;;;;;;5001570;28;20659;-57
2022/11/28 00:38:29;;;;;;;22.85;20.45;;;4.60;99.90;;;;;;5000196;28;20199;-53
2022/11/28 00:41:03;;;;;;;24.35;21.80;;;4.60;99.90;;;;;;5001016;28;20249;-58
2022/11/28 00:43:29;;;;;;;23.95;21.38;;;4.60;99.90;;;;;;4999849;28;20171;-51
2022/11/28 00:45:55;;;;;;;22.60;20.40;;;4.60;99.90;;;;;;4999294;28;20541;-53
2022/11/28 00:48:21;;;;;;;23.10;20.67;;;4.50;99.90;;;;;;5000089;28;20332;-58
2022/11/28 00:50:47;;;;;;;22.60;20.30;;;4.60;99.90;;;;;;4999932;28;20330;-56
2022/11/28 00:53:12;;;;;;;22.70;20.40;;;4.50;99.90;;;;;;4999229;28;20442;-56
2022/11/28 00:55:38;;;;;;;22.97;20.57;;;4.50;99.90;;;;;;5000309;28;20906;-54
2022/11/28 00:58:04;;;;;;;23.27;20.65;;;4.50;99.90;;;;;;4998458;28;20187;-52
2022/11/28 01:00:30;;;;;;;21.83;19.53;;;4.50;99.90;;;;;;4999928;28;20761;-60
2022/11/28 01:02:55;;;;;;;21.57;19.37;;;4.50;99.90;;;;;;4999178;28;20175;-57
2022/11/28 01:05:21;;;;;;;21.27;19.20;;;4.40;99.90;;;;;;4999851;28;20536;-56
2022/11/28 01:07:47;;;;;;;20.93;18.83;;;4.50;99.90;;;;;;4999089;28;20210;-56
2022/11/28 01:10:12;;;;;;;22.07;19.87;;;4.40;99.90;;;;;;4999621;28;20187;-57
2022/11/28 01:12:38;;;;;;;21.43;19.20;;;4.50;99.90;;;;;;4999280;28;20186;-58
2022/11/28 01:15:06;;;;;;;22.20;19.90;;;4.40;99.90;;;;;;4999174;28;20843;-56
2022/11/28 01:17:32;;;;;;;24.40;20.45;;;4.40;99.90;;;;;;4999026;28;20434;-57
2022/11/28 01:19:57;;;;;;;21.13;18.90;;;4.50;99.90;;;;;;4999340;28;20217;-57
2022/11/28 01:22:23;;;;;;;22.77;20.57;;;4.40;99.90;;;;;;4998190;28;20716;-58
2022/11/28 01:24:49;;;;;;;21.30;19.00;;;4.40;99.90;;;;;;4998454;28;20254;-58
2022/11/28 01:27:14;;;;;;;22.10;19.80;;;4.40;99.90;;;;;;4999213;28;20619;-56
2022/11/28 01:29:40;;;;;;;21.10;19.13;;;4.40;99.90;;;;;;4998748;28;20187;-52
2022/11/28 01:32:05;;;;;;;21.83;19.57;;;4.40;99.90;;;;;;4998987;28;20191;-56
2022/11/28 01:34:31;;;;;;;21.77;19.23;;;4.50;99.90;;;;;;4999478;28;20720;-56
2022/11/28 01:36:57;;;;;;;21.63;19.23;;;4.50;99.90;;;;;;4999170;28;20191;-57
2022/11/28 01:39:22;;;;;;;23.30;21.00;;;4.40;99.90;;;;;;4998163;28;20518;-57
2022/11/28 01:41:48;;;;;;;22.30;19.90;;;4.40;99.90;;;;;;4999200;28;20179;-55
2022/11/28 01:44:13;;;;;;;24.17;20.43;;;4.40;99.90;;;;;;4998742;28;20176;-57
2022/11/28 01:46:39;;;;;;;22.57;20.27;;;4.40;99.90;;;;;;5000099;28;20183;-51
2022/11/28 01:49:17;;;;;;;25.13;21.17;;;4.30;99.90;;;;;;5000061;28;20253;-52
2022/11/28 01:51:54;;;;;;;22.90;20.58;;;4.40;99.90;;;;;;4999828;28;20194;-55
2022/11/28 01:54:22;;;;;;;21.63;19.42;;;4.30;99.90;;;;;;4999546;28;20661;-61
2022/11/28 01:56:57;;;;;;;26.13;20.45;;;4.30;99.90;;;;;;4998851;28;20245;-57
2022/11/28 01:59:26;;;;;;;23.48;20.70;;;4.30;99.90;;;;;;4997555;28;20195;-56
2022/11/28 02:01:51;;;;;;;24.00;21.40;;;4.30;99.90;;;;;;4998192;28;20956;-57
2022/11/28 02:04:17;;;;;;;24.03;21.47;;;4.30;99.90;;;;;;4998344;28;20544;-56
2022/11/28 02:06:43;;;;;;;22.70;19.97;;;4.30;99.90;;;;;;4999579;28;20187;-55
2022/11/28 02:09:14;;;;;;;23.60;21.20;;;4.30;99.90;;;;;;4999049;28;21073;-56
2022/11/28 02:11:51;;;;;;;22.40;20.00;;;4.20;99.90;;;;;;4997205;28;20317;-54
2022/11/28 02:14:41;;;;;;;27.08;20.45;;;4.20;99.90;;;;;;4998518;28;20191;-56
2022/11/28 02:17:20;;;;;;;23.25;20.92;;;4.10;99.90;;;;;;4997954;28;20641;-55
2022/11/28 02:20:17;;;;;;;22.60;20.40;;;4.10;99.90;;;;;;4998025;28;20210;-55
2022/11/28 02:23:01;;;;;;;22.35;19.95;;;4.10;99.90;;;;;;4998171;28;20638;-58
2022/11/28 02:25:35;;;;;;;22.67;20.08;;;4.10;99.90;;;;;;4998392;28;20194;-55
2022/11/28 02:28:19;;;;;;;22.95;20.40;;;4.00;99.90;;;;;;4997424;28;20194;-56
2022/11/28 02:30:51;;;;;;;23.10;20.65;;;4.00;99.90;;;;;;4999881;28;20227;-55
2022/11/28 02:33:29;;;;;;;22.90;19.85;;;4.00;99.90;;;;;;5002035;28;20908;-56
2022/11/28 02:36:17;;;;;;;23.05;20.75;;;4.00;99.90;;;;;;5002919;28;20205;-55
2022/11/28 02:39:08;;;;;;;21.70;19.38;;;4.00;99.90;;;;;;5001343;28;20552;-57
2022/11/28 02:41:45;;;;;;;22.80;19.55;;;3.90;99.90;;;;;;5001075;28;20211;-49
2022/11/28 02:44:38;;;;;;;22.55;19.55;;;3.90;99.90;;;;;;5001871;28;20203;-51
2022/11/28 02:47:09;;;;;;;21.92;19.63;;;3.90;99.90;;;;;;4986940;28;20674;-51
2022/11/28 02:49:54;;;;;;;22.23;19.83;;;3.90;99.90;;;;;;5002985;28;20555;-49
2022/11/28 02:52:32;;;;;;;21.48;19.30;;;3.90;99.90;;;;;;5001585;28;20237;-48
2022/11/28 02:54:59;;;;;;;22.40;20.10;;;3.90;99.90;;;;;;5001980;28;20183;-51
2022/11/28 02:57:39;;;;;;;22.67;18.83;;;3.90;99.90;;;;;;5001449;28;20708;-50
2022/11/28 03:00:26;;;;;;;21.42;19.33;;;3.80;99.90;;;;;;5000535;28;20203;-50
2022/11/28 03:03:13;;;;;;;22.05;19.70;;;3.80;99.90;;;;;;5001743;28;20968;-49
2022/11/28 03:05:45;;;;;;;22.20;20.00;;;3.80;99.90;;;;;;5001934;28;20670;-50
2022/11/28 03:08:26;;;;;;;21.15;19.02;;;3.80;99.90;;;;;;5001557;28;20199;-49
2022/11/28 03:11:05;;;;;;;21.10;18.98;;;3.80;99.90;;;;;;5001742;28;20512;-53
2022/11/28 03:13:40;;;;;;;22.05;19.50;;;3.80;99.90;;;;;;5001320;28;20614;-54
2022/11/28 03:16:21;;;;;;;22.95;19.67;;;3.80;99.90;;;;;;4998567;28;20621;-51
2022/11/28 03:18:59;;;;;;;23.80;20.73;;;3.80;99.90;;;;;;5002392;28;20696;-49
2022/11/28 03:21:48;;;;;;;22.00;19.73;;;3.80;99.90;;;;;;5000788;28;20253;-54
2022/11/28 03:24:19;;;;;;;21.98;19.67;;;3.80;99.90;;;;;;5002461;28;20187;-49
2022/11/28 03:26:54;;;;;;;21.60;19.40;;;3.80;99.90;;;;;;5000699;28;20563;-49
2022/11/28 03:29:35;;;;;;;21.90;19.60;;;3.80;99.90;;;;;;5001969;28;20252;-47
2022/11/28 03:32:25;;;;;;;22.13;19.83;;;3.80;99.90;;;;;;5002034;28;20241;-54
2022/11/28 03:34:58;;;;;;;21.88;18.70;;;3.80;99.90;;;;;;5000612;28;20685;-50
2022/11/28 03:37:29;;;;;;;21.73;19.52;;;3.70;99.90;;;;;;5002092;28;20211;-47
2022/11/28 03:40:01;;;;;;;21.92;19.67;;;3.80;99.90;;;;;;5001619;28;20199;-50
2022/11/28 03:42:31;;;;;;;23.08;20.58;;;3.80;99.90;;;;;;4999635;28;20529;-53
2022/11/28 03:45:04;;;;;;;23.02;20.50;;;3.70;99.90;;;;;;5000672;28;20545;-49
2022/11/28 03:47:35;;;;;;;22.58;19.02;;;3.70;99.90;;;;;;5001062;28;20593;-49
2022/11/28 03:50:06;;;;;;;22.23;19.90;;;3.80;99.90;;;;;;5001822;28;20298;-47
2022/11/28 03:52:42;;;;;;;25.55;21.55;;;3.70;99.90;;;;;;5001916;28;20649;-51
2022/11/28 03:55:19;;;;;;;22.02;19.83;;;3.70;99.90;;;;;;5000904;28;20661;-50
2022/11/28 03:57:56;;;;;;;23.52;21.13;;;3.70;99.90;;;;;;4999672;28;20270;-53
2022/11/28 04:00:23;;;;;;;23.05;20.65;;;3.70;99.90;;;;;;5001079;28;20768;-50
2022/11/28 04:03:18;;;;;;;21.98;19.75;;;3.60;99.90;;;;;;5000330;28;20617;-50
2022/11/28 04:05:51;;;;;;;22.13;20.05;;;3.60;99.90;;;;;;4983806;28;20314;-54
2022/11/28 04:08:23;;;;;;;22.70;20.35;;;3.60;99.90;;;;;;5000220;28;20189;-52
2022/11/28 04:11:19;;;;;;;21.80;19.70;;;3.60;99.90;;;;;;5001041;28;20527;-50
2022/11/28 04:13:56;;;;;;;22.25;19.85;;;3.60;99.90;;;;;;5000107;28;20244;-49
2022/11/28 04:16:36;;;;;;;22.88;20.60;;;3.60;99.90;;;;;;4999584;28;20645;-51
2022/11/28 04:19:18;;;;;;;22.48;20.38;;;3.50;99.90;;;;;;5000512;28;20220;-53
2022/11/28 04:22:06;;;;;;;23.10;20.65;;;3.50;99.90;;;;;;5000009;28;20311;-51
2022/11/28 04:24:37;;;;;;;22.63;20.15;;;3.50;99.90;;;;;;4994242;28;20226;-51
2022/11/28 04:27:10;;;;;;;24.10;21.20;;;3.50;99.90;;;;;;4999790;28;20277;-53
2022/11/28 04:29:41;;;;;;;22.63;20.23;;;3.40;99.90;;;;;;4999011;28;20198;-47
2022/11/28 04:32:09;;;;;;;23.13;20.77;;;3.40;99.90;;;;;;5000664;28;20195;-50
2022/11/28 04:34:37;;;;;;;25.75;22.85;;;3.30;99.90;;;;;;5000616;28;20265;-50
2022/11/28 04:37:05;;;;;;;23.48;20.70;;;3.40;99.90;;;;;;5000738;28;20539;-53
2022/11/28 04:39:33;;;;;;;22.90;20.40;;;3.40;99.90;;;;;;4999866;28;20244;-53
2022/11/28 04:42:12;;;;;;;23.00;20.55;;;3.40;99.90;;;;;;5000818;28;20189;-48
2022/11/28 04:45:10;;;;;;;22.65;20.20;;;3.30;99.90;;;;;;4999475;28;20194;-51
2022/11/28 04:47:36;;;;;;;22.05;19.73;;;3.40;99.90;;;;;;4999560;28;20631;-53
2022/11/28 04:50:02;;;;;;;22.17;19.87;;;3.40;99.90;;;;;;5000708;28;20293;-51
2022/11/28 04:52:39;;;;;;;22.85;20.33;;;3.40;99.90;;;;;;5000295;28;20524;-54
2022/11/28 04:55:36;;;;;;;22.05;19.75;;;3.40;99.90;;;;;;4999848;28;20183;-48
2022/11/28 04:58:27;;;;;;;23.92;19.90;;;3.50;99.90;;;;;;4999441;28;20314;-50
2022/11/28 05:00:54;;;;;;;23.15;20.92;;;3.50;99.90;;;;;;4999852;28;20988;-51
2022/11/28 05:03:20;;;;;;;22.25;19.98;;;3.50;99.90;;;;;;4999709;28;20580;-48
2022/11/28 05:05:49;;;;;;;21.77;19.58;;;3.50;99.90;;;;;;4997280;28;20211;-53
2022/11/28 05:08:16;;;;;;;22.05;19.75;;;3.50;99.90;;;;;;4997362;28;20655;-52
2022/11/28 05:10:41;;;;;;;24.55;21.00;;;3.50;99.90;;;;;;4999328;28;21077;-57
2022/11/28 05:13:07;;;;;;;24.73;19.17;;;3.60;99.90;;;;;;4999495;28;20183;-47
2022/11/28 05:15:33;;;;;;;22.87;20.47;;;3.60;99.90;;;;;;5000016;28;20193;-48
2022/11/28 05:17:59;;;;;;;24.10;20.90;;;3.50;99.90;;;;;;4999507;28;20187;-50
2022/11/28 05:20:25;;;;;;;24.00;21.37;;;3.50;99.90;;;;;;5000072;28;20480;-51
2022/11/28 05:22:50;;;;;;;23.80;20.90;;;3.50;99.90;;;;;;4999095;28;20697;-50
2022/11/28 05:25:16;;;;;;;28.03;21.57;;;3.50;99.90;;;;;;4999479;28;20192;-54
2022/11/28 05:27:42;;;;;;;22.67;20.30;;;3.50;99.90;;;;;;4998689;28;20639;-52
2022/11/28 05:30:10;;;;;;;22.77;20.27;;;3.60;99.90;;;;;;4998128;28;20237;-47
2022/11/28 05:32:35;;;;;;;22.10;19.17;;;3.70;99.90;;;;;;4996960;28;20558;-51
2022/11/28 05:35:03;;;;;;;22.17;20.00;;;3.80;99.90;;;;;;4999834;28;20187;-53
2022/11/28 05:37:28;;;;;;;24.25;20.20;;;3.80;99.90;;;;;;4999084;28;20191;-56
2022/11/28 05:39:54;;;;;;;22.90;20.60;;;3.80;99.90;;;;;;4998354;28;20545;-51
2022/11/28 05:42:20;;;;;;;23.23;20.80;;;3.80;99.90;;;;;;5000766;28;20270;-52
2022/11/28 05:44:46;;;;;;;23.07;20.67;;;3.80;99.90;;;;;;4999402;28;20245;-52
2022/11/28 05:47:12;;;;;;;21.17;18.98;;;3.80;99.90;;;;;;5000955;28;20238;-51
2022/11/28 05:49:38;;;;;;;21.07;18.63;;;3.80;99.90;;;;;;5000577;28;20993;-51
2022/11/28 05:52:03;;;;;;;20.60;18.60;;;3.80;99.90;;;;;;5000221;28;20217;-49
2022/11/28 05:54:30;;;;;;;22.10;19.30;;;3.80;99.90;;;;;;5000008;28;20187;-48
2022/11/28 05:56:55;;;;;;;22.67;19.85;;;3.80;99.90;;;;;;4999699;28;20265;-48
2022/11/28 05:59:21;;;;;;;21.27;19.00;;;3.80;99.90;;;;;;4998878;28;20191;-57
2022/11/28 06:01:47;;;;;;;22.07;19.23;;;3.90;99.90;;;;;;4998658;28;20211;-56
2022/11/28 06:04:12;;;;;;;21.60;19.03;;;3.80;99.90;;;;;;4999840;28;20183;-49
2022/11/28 06:06:38;;;;;;;23.80;18.77;;;3.90;99.90;;;;;;5002435;28;20178;-56
2022/11/28 06:09:05;;;;;;;20.63;18.43;;;3.80;99.90;;;;;;5003660;28;20190;-50
2022/11/28 06:11:32;;;;;;;20.77;18.45;;;3.80;99.90;;;;;;5003635;28;20191;-53
2022/11/28 06:13:57;;;;;;;20.65;18.55;;;3.90;99.90;;;;;;5003447;28;20187;-47
2022/11/28 06:16:25;;;;;;;20.10;18.00;;;3.90;99.90;;;;;;5002688;28;20715;-48
2022/11/28 06:18:54;;;;;;;21.50;19.15;;;3.90;99.90;;;;;;5003417;28;20187;-50
2022/11/28 06:21:20;;;;;;;21.02;18.88;;;4.00;99.90;;;;;;5003175;28;20219;-51
2022/11/28 06:23:46;;;;;;;23.77;21.35;;;4.00;99.90;;;;;;5002375;28;20278;-50
2022/11/28 06:26:15;;;;;;;21.90;19.60;;;4.10;99.90;;;;;;5001726;28;20660;-52
2022/11/28 06:28:41;;;;;;;20.98;18.67;;;4.10;99.90;;;;;;5003124;28;20910;-47
2022/11/28 06:31:12;;;;;;;22.07;18.60;;;4.20;99.90;;;;;;5003232;28;20187;-48
2022/11/28 06:33:38;;;;;;;20.23;18.27;;;4.10;99.90;;;;;;5003129;28;20206;-49
2022/11/28 06:36:05;;;;;;;19.50;17.50;;;4.20;99.90;;;;;;5003246;28;20183;-53
2022/11/28 06:38:31;;;;;;;20.60;18.60;;;4.20;99.90;;;;;;5003338;28;20555;-57
2022/11/28 06:40:59;;;;;;;20.90;18.80;;;4.30;99.90;;;;;;5002823;28;20217;-55
2022/11/28 06:43:25;;;;;;;22.60;18.65;;;4.30;99.90;;;;;;5003157;28;20176;-57
2022/11/28 06:45:51;;;;;;;19.65;17.73;;;4.30;99.90;;;;;;5003353;28;20214;-56
2022/11/28 06:48:16;;;;;;;19.53;17.53;;;4.30;99.90;;;;;;5001754;28;20489;-53
2022/11/28 06:50:42;;;;;;;20.67;18.60;;;4.40;99.90;;;;;;5002072;28;20199;-55
2022/11/28 06:53:07;;;;;;;21.10;18.60;;;4.40;99.90;;;;;;5002819;28;20198;-54
2022/11/28 06:55:33;;;;;;;19.53;17.53;;;4.40;99.90;;;;;;4985009;28;20191;-58
2022/11/28 06:57:59;;;;;;;19.67;17.63;;;4.50;99.90;;;;;;5002153;28;20199;-56
2022/11/28 07:00:24;;;;;;;19.87;17.90;;;4.40;99.90;;;;;;5002579;28;20456;-55
2022/11/28 07:02:50;;;;;;;21.63;19.43;;;4.50;99.90;;;;;;5002261;28;20191;-55
2022/11/28 07:05:16;;;;;;;19.87;17.87;;;4.50;99.90;;;;;;5002649;28;20453;-54
2022/11/28 07:07:42;;;;;;;20.00;18.00;;;4.50;99.90;;;;;;5002318;28;20194;-56
2022/11/28 07:10:08;;;;;;;21.42;19.25;;;4.50;99.90;;;;;;5002931;28;20616;-57
2022/11/28 07:12:34;;;;;;;20.85;18.70;;;4.60;99.90;;;;;;5002753;28;20663;-55
2022/11/28 07:15:00;;;;;;;19.77;17.80;;;4.60;99.90;;;;;;5002627;28;20195;-53
2022/11/28 07:17:25;;;;;;;20.27;18.17;;;4.60;99.90;;;;;;5002293;28;20187;-48
2022/11/28 07:19:51;;;;;;;20.40;18.30;;;4.60;99.90;;;;;;5002803;28;20237;-54
2022/11/28 07:22:16;;;;;;;19.40;17.60;;;4.60;99.90;;;;;;5002264;28;20487;-55
2022/11/28 07:24:42;;;;;;;20.17;17.63;;;4.60;99.90;;;;;;5002307;28;20245;-55
2022/11/28 07:27:08;;;;;;;18.80;17.00;;;4.60;99.90;;;;;;5002212;28;20232;-56
2022/11/28 07:29:36;;;;;;;19.93;17.93;;;4.60;99.90;;;;;;5002136;28;20179;-55
2022/11/28 07:32:06;;;;;;;20.00;18.05;;;4.70;99.90;;;;;;5000610;28;20498;-56
2022/11/28 07:34:33;;;;;;;19.25;17.25;;;4.70;99.90;;;;;;5001883;28;20241;-54
2022/11/28 07:36:58;;;;;;;18.33;16.63;;;4.60;99.90;;;;;;5000803;28;20552;-58
2022/11/28 07:39:24;;;;;;;19.40;17.50;;;4.70;99.90;;;;;;5001022;28;20269;-51
2022/11/28 07:41:50;;;;;;;18.90;17.00;;;4.70;99.90;;;;;;5001912;28;20250;-54
2022/11/28 07:44:16;;;;;;;19.43;17.33;;;4.80;99.90;;;;;;5002312;28;20183;-57
2022/11/28 07:46:46;;;;;;;19.23;16.50;;;4.70;99.90;;;;;;5001569;28;20195;-57
2022/11/28 07:49:13;;;;;;;18.33;16.52;;;4.70;99.90;;;;;;5002443;28;20786;-57
2022/11/28 07:51:40;;;;;;;18.95;17.15;;;4.80;99.90;;;;;;5001811;28;20198;-56
2022/11/28 07:54:06;;;;;;;19.00;17.00;;;4.70;99.90;;;;;;5001678;28;20199;-52
2022/11/28 07:56:34;;;;;;;18.67;16.63;;;4.80;99.90;;;;;;5001712;28;20202;-55
2022/11/28 07:59:00;;;;;;;19.50;17.60;;;4.90;99.90;;;;;;5000343;28;20446;-52
2022/11/28 08:01:28;;;;;;;19.60;17.60;;;4.90;99.90;;;;;;5001523;28;20661;-55
2022/11/28 08:03:55;;;;;;;20.50;18.40;;;4.90;99.90;;;;;;5000725;28;20261;-58
2022/11/28 08:06:23;;;;;;;19.50;17.55;;;4.90;99.90;;;;;;5001376;28;20653;-59
2022/11/28 08:08:50;;;;;;;18.60;16.80;;;4.90;99.90;;;;;;5001351;28;20188;-53
2022/11/28 08:11:17;;;;;;;19.35;17.42;;;4.90;99.90;;;;;;5001571;28;20561;-57
2022/11/28 08:13:44;;;;;;;19.40;17.50;;;4.90;99.90;;;;;;5001531;28;20183;-55
2022/11/28 08:16:21;;;;;;;18.48;16.77;;;5.00;99.90;;;;;;5001203;28;20542;-54
2022/11/28 08:18:48;;;;;;;19.83;17.85;;;5.00;99.90;;;;;;5001600;28;20229;-50
2022/11/28 08:21:23;;;;;;;20.77;18.33;;;5.10;99.90;;;;;;4999819;28;20700;-51
2022/11/28 08:23:50;;;;;;;19.40;17.33;;;5.20;99.90;;;;;;4962287;28;20188;-52
2022/11/28 08:26:18;;;;;;;19.67;17.63;;;5.10;99.90;;;;;;4961816;28;20256;-51
2022/11/28 08:28:44;;;;;;;18.02;16.23;;;5.10;99.90;;;;;;4959151;28;20189;-47
2022/11/28 08:31:22;;;;;;;19.00;17.20;;;5.20;99.90;;;;;;4961825;28;20252;-47
2022/11/28 08:33:49;;;;;;;21.38;19.30;;;5.20;99.90;;;;;;4961998;28;20180;-52
2022/11/28 08:36:18;;;;;;;20.33;18.27;;;5.20;99.90;;;;;;4962392;28;20456;-47
2022/11/28 08:38:46;;;;;;;20.30;18.30;;;5.20;99.90;;;;;;4962185;28;20223;-51
2022/11/28 08:41:17;;;;;;;20.38;18.27;;;5.40;99.90;;;;;;4962270;28;20570;-54
2022/11/28 08:43:43;;;;;;;21.00;19.00;;;5.40;99.90;;;;;;4961851;28;20255;-51
2022/11/28 08:46:12;;;;;;;19.67;17.85;;;5.50;99.90;;;;;;4960879;28;20188;-52
2022/11/28 08:48:38;;;;;;;20.08;18.13;;;5.50;99.90;;;;;;4961703;28;20247;-48
2022/11/28 08:51:05;;;;;;;20.50;18.50;;;5.50;99.90;;;;;;4961766;28;20196;-51
2022/11/28 08:53:31;;;;;;;21.45;19.15;;;5.60;99.90;;;;;;4962093;28;20212;-48
2022/11/28 08:55:56;;;;;;;20.05;18.15;;;5.80;99.90;;;;;;4960930;28;20191;-53
2022/11/28 08:58:22;;;;;;;19.50;17.70;;;5.80;99.90;;;;;;4961444;28;20196;-52
2022/11/28 09:00:50;;;;;;;20.90;18.90;;;5.70;99.90;;;;;;4962018;28;20720;-47
2022/11/28 09:03:17;;;;;;;20.35;18.55;;;5.80;99.90;;;;;;4961526;28;20189;-48
2022/11/28 09:05:45;;;;;;;19.65;17.77;;;5.80;99.90;;;;;;4961468;28;20181;-53
2022/11/28 09:08:11;;;;;;;20.00;18.08;;;5.70;99.90;;;;;;4961677;28;20751;-55
2022/11/28 09:10:38;;;;;;;21.42;19.33;;;5.80;99.90;;;;;;4961516;28;20188;-57
2022/11/28 09:13:04;;;;;;;21.27;18.77;;;5.70;99.90;;;;;;4961193;28;20185;-52
2022/11/28 09:15:30;;;;;;;20.63;18.80;;;5.60;99.90;;;;;;4961580;28;20216;-49
2022/11/28 09:17:55;;;;;;;20.07;18.07;;;5.60;99.90;;;;;;4961413;28;20664;-53
2022/11/28 09:20:21;;;;;;;21.37;19.27;;;5.50;99.90;;;;;;4961426;28;20528;-58
2022/11/28 09:22:46;;;;;;;22.07;19.87;;;5.60;99.90;;;;;;4986463;28;20389;-50
2022/11/28 09:25:13;;;;;;;21.90;19.40;;;5.60;99.90;;;;;;4999103;28;20191;-52
2022/11/28 09:27:39;;;;;;;19.92;18.00;;;5.60;99.90;;;;;;4999824;28;20191;-57
2022/11/28 09:30:06;;;;;;;21.23;18.90;;;5.70;99.90;;;;;;5000369;28;20199;-56
2022/11/28 09:32:32;;;;;;;20.17;18.17;;;5.70;99.90;;;;;;5000046;28;20218;-53
2022/11/28 09:34:57;;;;;;;21.10;19.00;;;5.80;99.90;;;;;;5000007;28;20194;-51
2022/11/28 09:37:23;;;;;;;19.93;17.93;;;5.80;99.90;;;;;;4999971;28;20561;-52
2022/11/28 09:39:50;;;;;;;21.17;19.23;;;5.90;99.90;;;;;;4999266;28;20275;-54
2022/11/28 09:42:42;;;;;;;22.52;20.25;;;5.90;99.90;;;;;;5000174;28;20266;-48
2022/11/28 09:45:23;;;;;;;22.58;20.48;;;5.90;99.90;;;;;;4999829;28;20182;-51
2022/11/28 09:48:26;;;;;;;22.02;19.85;;;5.90;99.90;;;;;;4999832;28;20601;-48
2022/11/28 09:50:56;;;;;;;20.67;18.65;;;6.00;99.90;;;;;;4998605;28;20183;-49
2022/11/28 09:53:46;;;;;;;21.02;19.02;;;6.00;99.90;;;;;;4999842;28;20199;-50
2022/11/28 09:56:15;;;;;;;22.38;20.08;;;6.00;99.90;;;;;;5000170;28;20753;-53
2022/11/28 09:58:49;;;;;;;20.60;18.50;;;6.10;99.90;;;;;;4999339;28;20571;-52
2022/11/28 10:01:42;;;;;;;21.40;19.27;;;6.10;99.90;;;;;;4999030;28;20704;-56
2022/11/28 10:04:22;;;;;;;21.63;19.52;;;6.20;99.90;;;;;;4997921;28;20190;-54
2022/11/28 10:07:42;;;;;;;21.20;19.00;;;6.20;99.90;;;;;;4998904;28;20265;-54
2022/11/28 10:10:32;;;;;;;21.92;19.73;;;6.20;99.90;;;;;;4919642;29;20281;-49
2022/11/28 10:13:16;;;;;;;22.60;20.20;;;6.20;99.90;;;;;;4994299;28;20200;-54
2022/11/28 10:16:06;;;;;;;22.98;20.58;;;6.20;99.90;;;;;;4999251;28;20555;-53
2022/11/28 10:18:45;;;;;;;21.48;19.17;;;6.10;99.90;;;;;;4999590;28;20194;-48
2022/11/28 10:21:32;;;;;;;23.00;20.60;;;6.20;99.90;;;;;;4999292;28;20704;-51
2022/11/28 10:24:03;;;;;;;23.98;21.48;;;6.10;99.90;;;;;;4998937;28;20193;-54
2022/11/28 10:26:34;;;;;;;23.35;20.98;;;6.00;99.90;;;;;;4999783;28;20267;-50
2022/11/28 10:29:22;;;;;;;24.55;21.95;;;5.90;99.90;;;;;;4999664;28;20611;-50
2022/11/28 10:31:51;;;;;;;23.70;21.38;;;6.00;99.90;;;;;;4999273;28;20199;-54
2022/11/28 10:34:29;;;;;;;23.17;20.77;;;6.00;99.90;;;;;;4999079;28;20574;-53
2022/11/28 10:37:06;;;;;;;23.85;20.90;;;5.80;99.90;;;;;;4999290;28;20194;-53
2022/11/28 10:39:36;;;;;;;22.88;20.67;;;5.90;99.90;;;;;;4999362;28;20740;-49
2022/11/28 10:42:15;;;;;;;23.95;20.27;;;6.00;99.90;;;;;;4999246;28;20666;-51
2022/11/28 10:44:50;;;;;;;23.27;20.83;;;6.00;99.90;;;;;;4999905;28;20191;-50
2022/11/28 10:47:48;;;;;;;23.15;20.77;;;6.00;99.90;;;;;;4999628;28;20650;-50
2022/11/28 10:50:48;;;;;;;24.02;21.45;;;6.10;99.90;;;;;;4999272;28;20199;-50
2022/11/28 10:53:29;;;;;;;22.75;20.38;;;6.10;99.90;;;;;;4999990;28;20243;-51
2022/11/28 10:56:09;;;;;;;22.40;20.20;;;6.10;99.90;;;;;;5002896;28;20412;-49
2022/11/28 10:59:05;;;;;;;24.52;21.98;;;6.00;99.90;;;;;;5002771;28;20187;-51
2022/11/28 11:01:36;;;;;;;23.45;21.05;;;6.00;99.90;;;;;;5002512;28;20836;-48
2022/11/28 11:04:02;;;;;;;24.38;21.85;;;6.10;99.90;;;;;;5002941;28;20258;-49
2022/11/28 11:06:27;;;;;;;23.50;21.10;;;6.00;99.90;;;;;;5002364;28;20186;-55
2022/11/28 11:08:53;;;;;;;23.83;21.43;;;6.10;99.90;;;;;;5002782;28;20921;-48
2022/11/28 11:11:35;;;;;;;23.67;21.43;;;6.20;99.90;;;;;;5002448;28;20197;-51
2022/11/28 11:14:05;;;;;;;22.02;19.73;;;6.10;99.90;;;;;;5002284;28;20238;-46
2022/11/28 11:16:54;;;;;;;25.40;21.00;;;6.20;99.90;;;;;;5003025;28;20190;-53
2022/11/28 11:19:34;;;;;;;23.33;21.08;;;6.20;99.90;;;;;;5002927;28;20441;-51
2022/11/28 11:22:02;;;;;;;22.50;20.30;;;6.20;99.90;;;;;;5001044;28;20290;-51
2022/11/28 11:24:28;;;;;;;23.55;21.23;;;6.20;99.90;;;;;;5002357;28;20642;-49
2022/11/28 11:27:03;;;;;;;23.83;21.43;;;6.10;99.90;;;;;;5002074;28;20193;-53
2022/11/28 11:29:35;;;;;;;22.63;20.33;;;6.30;99.90;;;;;;5002535;28;20422;-48
2022/11/28 11:32:05;;;;;;;22.58;20.23;;;6.20;99.90;;;;;;5002077;28;20632;-56
2022/11/28 11:34:45;;;;;;;23.38;20.98;;;6.30;99.90;;;;;;5001143;28;20179;-56
2022/11/28 11:37:37;;;;;;;25.15;21.90;;;6.40;99.90;;;;;;5002331;28;21031;-58
2022/11/28 11:40:34;;;;;;;24.20;21.80;;;6.50;99.90;;;;;;4998657;28;20217;-57
2022/11/28 11:43:00;;;;;;;23.83;21.52;;;6.60;99.90;;;;;;5000645;28;20626;-58
2022/11/28 11:45:32;;;;;;;23.47;21.17;;;6.60;99.90;;;;;;5001948;28;20579;-59
2022/11/28 11:47:59;;;;;;;25.73;23.02;;;6.70;99.90;;;;;;5001810;28;20664;-56
2022/11/28 11:50:28;;;;;;;24.07;21.67;;;6.80;99.90;;;;;;5001812;28;20196;-56
2022/11/28 11:53:04;;;;;;;22.83;20.53;;;6.80;99.90;;;;;;5000871;28;20912;-54
2022/11/28 11:55:33;;;;;;;25.55;22.83;;;6.80;99.90;;;;;;5001584;28;20522;-55
2022/11/28 11:58:01;;;;;;;24.27;21.87;;;6.70;99.90;;;;;;5001861;28;20235;-56
2022/11/28 12:00:35;;;;;;;26.15;22.67;;;6.90;99.90;;;;;;5001465;28;20498;-56
2022/11/28 12:03:23;;;;;;;23.50;21.30;;;6.90;99.90;;;;;;4997250;28;20191;-57
2022/11/28 12:05:56;;;;;;;25.37;21.90;;;6.90;99.90;;;;;;4967537;28;20467;-53
2022/11/28 12:08:33;;;;;;;23.70;21.30;;;7.00;99.90;;;;;;5001332;28;20482;-55
2022/11/28 12:11:25;;;;;;;24.07;21.57;;;7.10;99.90;;;;;;5001691;28;20785;-59
2022/11/28 12:13:51;;;;;;;24.58;21.88;;;7.00;99.90;;;;;;5001353;28;20423;-54
2022/11/28 12:16:40;;;;;;;23.50;21.10;;;6.90;99.90;;;;;;5001662;28;20183;-56
2022/11/28 12:19:27;;;;;;;23.77;21.27;;;6.80;99.90;;;;;;5001340;28;20560;-49
2022/11/28 12:22:04;;;;;;;23.80;20.87;;;6.80;99.90;;;;;;5000870;28;20481;-55
2022/11/28 12:24:59;;;;;;;23.55;21.23;;;6.60;99.90;;;;;;5000838;28;20422;-56
2022/11/28 12:27:39;;;;;;;24.10;21.70;;;6.50;99.90;;;;;;5001097;28;20331;-52
2022/11/28 12:30:25;;;;;;;24.02;21.60;;;6.50;99.90;;;;;;5001383;28;20742;-54
2022/11/28 12:33:14;;;;;;;24.57;21.87;;;6.60;99.90;;;;;;5001211;28;20540;-56
2022/11/28 12:35:43;;;;;;;24.47;21.93;;;6.70;99.90;;;;;;5001128;28;20420;-54
2022/11/28 12:38:35;;;;;;;24.40;21.98;;;6.60;99.90;;;;;;5000340;28;20445;-56
2022/11/28 12:41:22;;;;;;;22.20;20.05;;;6.60;99.90;;;;;;5000856;28;20233;-55
2022/11/28 12:43:59;;;;;;;23.90;21.40;;;6.70;99.90;;;;;;5001256;28;20633;-58
2022/11/28 12:46:35;;;;;;;23.88;20.83;;;6.70;99.90;;;;;;4999953;28;20439;-56
2022/11/28 12:49:33;;;;;;;22.92;20.55;;;6.60;99.90;;;;;;4999365;28;20274;-57
2022/11/28 12:52:22;;;;;;;21.93;19.57;;;6.70;99.90;;;;;;5000480;28;20702;-52
2022/11/28 12:55:26;;;;;;;21.80;19.60;;;6.70;99.90;;;;;;4983101;28;20530;-49
2022/11/28 12:57:57;;;;;;;21.85;19.60;;;6.60;99.90;;;;;;4976807;28;20197;-56
2022/11/28 13:00:25;;;;;;;23.25;20.83;;;6.60;99.90;;;;;;5000397;28;20202;-56
2022/11/28 13:03:06;;;;;;;22.53;20.23;;;6.70;99.90;;;;;;5000705;28;20573;-57